sensor_id;sensor_type;location;lat;lon;timestamp;temperature;humidity
33994;DHT22;20673;48.980;8.138;2022-12-07T00:00:47;3.90;99.90
33994;DHT22;20673;48.980;8.138;2022-12-07T00:03:13;3.90;99.90
33994;DHT22;20673;48.980;8.138;2022-12-07T00:05:39;3.90;99.90
33994;DHT22;20673;48.980;8.138;2022-12-07T00:08:05;3.90;99.90
33994;DHT22;20673;48.980;8.138;2022-12-07T00:10:32;3.90;99.90
33994;DHT22;20673;48.980;8.138;2022-12-07T00:12:59;3.90;99.90
33994;DHT22;20673;48.980;8.138;2022-12-07T00:15:25;3.90;99.90
33994;DHT22;20673;48.980;8.138;2022-12-07T00:17:51;3.90;99.90
33994;DHT22;20673;48.980;8.138;2022-12-07T00:20:17;3.90;99.90
33994;DHT22;20673;48.980;8.138;2022-12-07T00:22:43;3.90;99.90
33994;DHT22;20673;48.980;8.138;2022-12-07T00:25:09;3.90;99.90
33994;DHT22;20673;48.980;8.138;2022-12-07T00:27:35;3.90;99.90
33994;DHT22;20673;48.980;8.138;2022-12-07T00:30:01;3.90;99.90
33994;DHT22;20673;48.980;8.138;2022-12-07T00:32:28;3.90;99.90
33994;DHT22;20673;48.980;8.138;2022-12-07T00:34:54;3.90;99.90
33994;DHT22;20673;48.980;8.138;2022-12-07T00:37:19;3.80;99.90
33994;DHT22;20673;48.980;8.138;2022-12-07T00:39:46;3.80;99.90
33994;DHT22;20673;48.980;8.138;2022-12-07T00:42:12;3.80;99.90
33994;DHT22;20673;48.980;8.138;2022-12-07T00:44:38;3.80;99.90
33994;DHT22;20673;48.980;8.138;2022-12-07T00:47:04;3.80;99.90
33994;DHT22;20673;48.980;8.138;2022-12-07T00:49:30;3.80;99.90
33994;DHT22;20673;48.980;8.138;2022-12-07T00:51:56;3.90;99.90
33994;DHT22;20673;48.980;8.138;2022-12-07T00:54:21;3.90;99.90
33994;DHT22;20673;48.980;8.138;2022-12-07T00:56:47;3.80;99.90
33994;DHT22;20673;48.980;8.138;2022-12-07T00:59:13;3.80;99.90
33994;DHT22;20673;48.980;8.138;2022-12-07T01:01:40;3.80;99.90
33994;DHT22;20673;48.980;8.138;2022-12-07T01:04:06;3.80;99.90
33994;DHT22;20673;48.980;8.138;2022-12-07T01:06:32;3.80;99.90
33994;DHT22;20673;48.980;8.138;2022-12-07T01:08:58;3.80;99.90
33994;DHT22;20673;48.980;8.138;2022-12-07T01:11:26;3.80;99.90
33994;DHT22;20673;48.980;8.138;2022-12-07T01:13:54;3.80;99.90
33994;DHT22;20673;48.980;8.138;2022-12-07T01:16:22;3.80;99.90
33994;DHT22;20673;48.980;8.138;2022-12-07T01:18:51;3.80;99.90
33994;DHT22;20673;48.980;8.138;2022-12-07T01:21:22;3.80;99.90
33994;DHT22;20673;48.980;8.138;2022-12-07T01:23:50;3.90;99.90
33994;DHT22;20673;48.980;8.138;2022-12-07T01:26:18;3.90;99.90
33994;DHT22;20673;48.980;8.138;2022-12-07T01:28:46;3.80;99.90
33994;DHT22;20673;48.980;8.138;2022-12-07T01:31:13;3.80;99.90
33994;DHT22;20673;48.980;8.138;2022-12-07T01:33:41;3.80;99.90
33994;DHT22;20673;48.980;8.138;2022-12-07T01:38:44;3.70;99.90
33994;DHT22;20673;48.980;8.138;2022-12-07T01:41:11;3.70;99.90
33994;DHT22;20673;48.980;8.138;2022-12-07T01:44:06;3.70;99.90
33994;DHT22;20673;48.980;8.138;2022-12-07T01:46:23;3.60;99.90
33994;DHT22;20673;48.980;8.138;2022-12-07T01:48:49;3.60;99.90
33994;DHT22;20673;48.980;8.138;2022-12-07T01:51:15;3.60;99.90
33994;DHT22;20673;48.980;8.138;2022-12-07T01:53:42;3.50;99.90
33994;DHT22;20673;48.980;8.138;2022-12-07T01:56:11;3.50;99.90
33994;DHT22;20673;48.980;8.138;2022-12-07T01:58:40;3.50;99.90
33994;DHT22;20673;48.980;8.138;2022-12-07T02:01:06;3.60;99.90
33994;DHT22;20673;48.980;8.138;2022-12-07T02:03:34;3.50;99.90
33994;DHT22;20673;48.980;8.138;2022-12-07T02:06:07;3.50;99.90
33994;DHT22;20673;48.980;8.138;2022-12-07T02:08:34;3.50;99.90
33994;DHT22;20673;48.980;8.138;2022-12-07T02:11:02;3.40;99.90
33994;DHT22;20673;48.980;8.138;2022-12-07T02:13:33;3.50;99.90
33994;DHT22;20673;48.980;8.138;2022-12-07T02:21:55;3.50;99.90
33994;DHT22;20673;48.980;8.138;2022-12-07T02:37:57;3.70;99.90
33994;DHT22;20673;48.980;8.138;2022-12-07T02:43:26;3.70;99.90
33994;DHT22;20673;48.980;8.138;2022-12-07T02:45:56;3.70;99.90
33994;DHT22;20673;48.980;8.138;2022-12-07T02:48:31;3.70;99.90
33994;DHT22;20673;48.980;8.138;2022-12-07T02:50:58;3.80;99.90
33994;DHT22;20673;48.980;8.138;2022-12-07T02:53:31;3.70;99.90
33994;DHT22;20673;48.980;8.138;2022-12-07T02:58:45;3.70;99.90
33994;DHT22;20673;48.980;8.138;2022-12-07T03:01:28;3.70;99.90
33994;DHT22;20673;48.980;8.138;2022-12-07T03:04:02;3.70;99.90
33994;DHT22;20673;48.980;8.138;2022-12-07T03:06:36;3.70;99.90
33994;DHT22;20673;48.980;8.138;2022-12-07T03:12:01;3.70;99.90
33994;DHT22;20673;48.980;8.138;2022-12-07T03:14:30;3.60;99.90
33994;DHT22;20673;48.980;8.138;2022-12-07T03:17:01;3.70;99.90
33994;DHT22;20673;48.980;8.138;2022-12-07T03:19:41;3.70;99.90
33994;DHT22;20673;48.980;8.138;2022-12-07T03:22:11;3.70;99.90
33994;DHT22;20673;48.980;8.138;2022-12-07T03:24:43;3.70;99.90
33994;DHT22;20673;48.980;8.138;2022-12-07T03:27:16;3.80;99.90
33994;DHT22;20673;48.980;8.138;2022-12-07T03:29:46;3.80;99.90
33994;DHT22;20673;48.980;8.138;2022-12-07T03:34:52;3.80;99.90
33994;DHT22;20673;48.980;8.138;2022-12-07T03:42:38;3.80;99.90
33994;DHT22;20673;48.980;8.138;2022-12-07T03:45:05;3.70;99.90
33994;DHT22;20673;48.980;8.138;2022-12-07T03:47:33;3.80;99.90
33994;DHT22;20673;48.980;8.138;2022-12-07T03:50:05;3.80;99.90
33994;DHT22;20673;48.980;8.138;2022-12-07T03:55:14;3.70;99.90
33994;DHT22;20673;48.980;8.138;2022-12-07T03:57:43;3.60;99.90
33994;DHT22;20673;48.980;8.138;2022-12-07T04:00:12;3.70;99.90
33994;DHT22;20673;48.980;8.138;2022-12-07T04:02:39;3.60;99.90
33994;DHT22;20673;48.980;8.138;2022-12-07T04:05:07;3.60;99.90
33994;DHT22;20673;48.980;8.138;2022-12-07T04:07:34;3.70;99.90
33994;DHT22;20673;48.980;8.138;2022-12-07T04:10:00;3.80;99.90
33994;DHT22;20673;48.980;8.138;2022-12-07T04:12:26;3.70;99.90
33994;DHT22;20673;48.980;8.138;2022-12-07T04:14:52;3.70;99.90
33994;DHT22;20673;48.980;8.138;2022-12-07T04:17:18;3.60;99.90
33994;DHT22;20673;48.980;8.138;2022-12-07T04:19:44;3.60;99.90
33994;DHT22;20673;48.980;8.138;2022-12-07T04:22:10;3.70;99.90
33994;DHT22;20673;48.980;8.138;2022-12-07T04:24:36;3.70;99.90
33994;DHT22;20673;48.980;8.138;2022-12-07T04:27:02;3.70;99.90
33994;DHT22;20673;48.980;8.138;2022-12-07T04:29:28;3.70;99.90
33994;DHT22;20673;48.980;8.138;2022-12-07T04:31:54;3.60;99.90
33994;DHT22;20673;48.980;8.138;2022-12-07T04:34:20;3.60;99.90
33994;DHT22;20673;48.980;8.138;2022-12-07T04:36:47;3.60;99.90
33994;DHT22;20673;48.980;8.138;2022-12-07T04:39:34;3.50;99.90
33994;DHT22;20673;48.980;8.138;2022-12-07T04:41:46;3.50;99.90
33994;DHT22;20673;48.980;8.138;2022-12-07T04:44:12;3.60;99.90
33994;DHT22;20673;48.980;8.138;2022-12-07T04:46:40;3.60;99.90
33994;DHT22;20673;48.980;8.138;2022-12-07T04:49:06;3.60;99.90
33994;DHT22;20673;48.980;8.138;2022-12-07T04:51:32;3.60;99.90
33994;DHT22;20673;48.980;8.138;2022-12-07T04:53:58;3.50;99.90
33994;DHT22;20673;48.980;8.138;2022-12-07T04:56:24;3.60;99.90
33994;DHT22;20673;48.980;8.138;2022-12-07T04:58:51;3.60;99.90
33994;DHT22;20673;48.980;8.138;2022-12-07T05:01:18;3.60;99.90
33994;DHT22;20673;48.980;8.138;2022-12-07T05:03:45;3.60;99.90
33994;DHT22;20673;48.980;8.138;2022-12-07T05:06:11;3.60;99.90
33994;DHT22;20673;48.980;8.138;2022-12-07T05:08:37;3.60;99.90
33994;DHT22;20673;48.980;8.138;2022-12-07T05:11:04;3.50;99.90
33994;DHT22;20673;48.980;8.138;2022-12-07T05:13:31;3.50;99.90
33994;DHT22;20673;48.980;8.138;2022-12-07T05:15:57;3.50;99.90
33994;DHT22;20673;48.980;8.138;2022-12-07T05:18:23;3.50;99.90
33994;DHT22;20673;48.980;8.138;2022-12-07T05:20:50;3.50;99.90
33994;DHT22;20673;48.980;8.138;2022-12-07T05:23:17;3.50;99.90
33994;DHT22;20673;48.980;8.138;2022-12-07T05:25:43;3.50;99.90
33994;DHT22;20673;48.980;8.138;2022-12-07T05:28:10;3.50;99.90
33994;DHT22;20673;48.980;8.138;2022-12-07T05:30:36;3.40;99.90
33994;DHT22;20673;48.980;8.138;2022-12-07T05:33:03;3.30;99.90
33994;DHT22;20673;48.980;8.138;2022-12-07T05:35:30;3.40;99.90
33994;DHT22;20673;48.980;8.138;2022-12-07T05:37:56;3.40;99.90
33994;DHT22;20673;48.980;8.138;2022-12-07T05:40:23;3.40;99.90
33994;DHT22;20673;48.980;8.138;2022-12-07T05:42:49;3.40;99.90
33994;DHT22;20673;48.980;8.138;2022-12-07T05:45:15;3.40;99.90
33994;DHT22;20673;48.980;8.138;2022-12-07T05:47:41;3.40;99.90
33994;DHT22;20673;48.980;8.138;2022-12-07T05:50:08;3.40;99.90
33994;DHT22;20673;48.980;8.138;2022-12-07T05:52:34;3.30;99.90
33994;DHT22;20673;48.980;8.138;2022-12-07T05:55:00;3.40;99.90
33994;DHT22;20673;48.980;8.138;2022-12-07T05:57:26;3.40;99.90
33994;DHT22;20673;48.980;8.138;2022-12-07T05:59:51;3.40;99.90
33994;DHT22;20673;48.980;8.138;2022-12-07T06:02:17;3.40;99.90
33994;DHT22;20673;48.980;8.138;2022-12-07T06:04:45;3.40;99.90
33994;DHT22;20673;48.980;8.138;2022-12-07T06:07:12;3.40;99.90
33994;DHT22;20673;48.980;8.138;2022-12-07T06:09:40;3.40;99.90
33994;DHT22;20673;48.980;8.138;2022-12-07T06:12:08;3.40;99.90
33994;DHT22;20673;48.980;8.138;2022-12-07T06:14:54;3.50;99.90
33994;DHT22;20673;48.980;8.138;2022-12-07T06:17:20;3.50;99.90
33994;DHT22;20673;48.980;8.138;2022-12-07T06:19:46;3.40;99.90
33994;DHT22;20673;48.980;8.138;2022-12-07T06:22:12;3.40;99.90
33994;DHT22;20673;48.980;8.138;2022-12-07T06:24:38;3.30;99.90
33994;DHT22;20673;48.980;8.138;2022-12-07T06:27:05;3.30;99.90
33994;DHT22;20673;48.980;8.138;2022-12-07T06:29:31;3.30;99.90
33994;DHT22;20673;48.980;8.138;2022-12-07T06:31:57;3.30;99.90
33994;DHT22;20673;48.980;8.138;2022-12-07T06:34:24;3.30;99.90
33994;DHT22;20673;48.980;8.138;2022-12-07T06:36:50;3.30;99.90
33994;DHT22;20673;48.980;8.138;2022-12-07T06:39:19;3.30;99.90
33994;DHT22;20673;48.980;8.138;2022-12-07T06:41:46;3.30;99.90
33994;DHT22;20673;48.980;8.138;2022-12-07T06:44:12;3.40;99.90
33994;DHT22;20673;48.980;8.138;2022-12-07T06:46:38;3.40;99.90
33994;DHT22;20673;48.980;8.138;2022-12-07T06:49:05;3.40;99.90
33994;DHT22;20673;48.980;8.138;2022-12-07T06:51:32;3.30;99.90
33994;DHT22;20673;48.980;8.138;2022-12-07T06:53:58;3.40;99.90
33994;DHT22;20673;48.980;8.138;2022-12-07T06:56:24;3.30;99.90
33994;DHT22;20673;48.980;8.138;2022-12-07T06:58:50;3.40;99.90
33994;DHT22;20673;48.980;8.138;2022-12-07T07:01:17;3.40;99.90
33994;DHT22;20673;48.980;8.138;2022-12-07T07:03:44;3.40;99.90
33994;DHT22;20673;48.980;8.138;2022-12-07T07:06:12;3.40;99.90
33994;DHT22;20673;48.980;8.138;2022-12-07T07:08:38;3.30;99.90
33994;DHT22;20673;48.980;8.138;2022-12-07T07:11:05;3.40;99.90
33994;DHT22;20673;48.980;8.138;2022-12-07T07:13:32;3.40;99.90
33994;DHT22;20673;48.980;8.138;2022-12-07T07:15:59;3.40;99.90
33994;DHT22;20673;48.980;8.138;2022-12-07T07:18:25;3.40;99.90
33994;DHT22;20673;48.980;8.138;2022-12-07T07:20:51;3.40;99.90
33994;DHT22;20673;48.980;8.138;2022-12-07T07:23:18;3.50;99.90
33994;DHT22;20673;48.980;8.138;2022-12-07T07:25:45;3.50;99.90
33994;DHT22;20673;48.980;8.138;2022-12-07T07:28:11;3.50;99.90
33994;DHT22;20673;48.980;8.138;2022-12-07T07:30:37;3.50;99.90
33994;DHT22;20673;48.980;8.138;2022-12-07T07:33:04;3.50;99.90
33994;DHT22;20673;48.980;8.138;2022-12-07T07:35:31;3.50;99.90
33994;DHT22;20673;48.980;8.138;2022-12-07T07:37:58;3.50;99.90
33994;DHT22;20673;48.980;8.138;2022-12-07T07:40:25;3.50;99.90
33994;DHT22;20673;48.980;8.138;2022-12-07T07:42:52;3.50;99.90
33994;DHT22;20673;48.980;8.138;2022-12-07T07:45:19;3.50;99.90
33994;DHT22;20673;48.980;8.138;2022-12-07T07:47:46;3.60;99.90
33994;DHT22;20673;48.980;8.138;2022-12-07T07:50:13;3.60;99.90
33994;DHT22;20673;48.980;8.138;2022-12-07T07:52:39;3.60;99.90
33994;DHT22;20673;48.980;8.138;2022-12-07T07:55:05;3.60;99.90
33994;DHT22;20673;48.980;8.138;2022-12-07T07:57:34;3.70;99.90
33994;DHT22;20673;48.980;8.138;2022-12-07T08:00:01;3.70;99.90
33994;DHT22;20673;48.980;8.138;2022-12-07T08:02:32;3.60;99.90
33994;DHT22;20673;48.980;8.138;2022-12-07T08:04:58;3.70;99.90
33994;DHT22;20673;48.980;8.138;2022-12-07T08:07:24;3.70;99.90
33994;DHT22;20673;48.980;8.138;2022-12-07T08:09:50;3.70;99.90
33994;DHT22;20673;48.980;8.138;2022-12-07T08:12:16;3.80;99.90
33994;DHT22;20673;48.980;8.138;2022-12-07T08:14:42;3.80;99.90
33994;DHT22;20673;48.980;8.138;2022-12-07T08:17:08;3.80;99.90
33994;DHT22;20673;48.980;8.138;2022-12-07T08:19:34;3.80;99.90
33994;DHT22;20673;48.980;8.138;2022-12-07T08:22:00;3.80;99.90
33994;DHT22;20673;48.980;8.138;2022-12-07T08:24:26;3.80;99.90
33994;DHT22;20673;48.980;8.138;2022-12-07T08:26:52;3.90;99.90
33994;DHT22;20673;48.980;8.138;2022-12-07T08:29:18;3.80;99.90
33994;DHT22;20673;48.980;8.138;2022-12-07T08:31:44;3.80;99.90
33994;DHT22;20673;48.980;8.138;2022-12-07T08:34:11;3.90;99.90
33994;DHT22;20673;48.980;8.138;2022-12-07T08:36:37;3.90;99.90
33994;DHT22;20673;48.980;8.138;2022-12-07T08:39:03;3.90;99.90
33994;DHT22;20673;48.980;8.138;2022-12-07T08:41:29;4.00;99.90
33994;DHT22;20673;48.980;8.138;2022-12-07T08:43:56;3.90;99.90
33994;DHT22;20673;48.980;8.138;2022-12-07T08:46:33;4.00;99.90
33994;DHT22;20673;48.980;8.138;2022-12-07T08:49:14;4.00;99.90
33994;DHT22;20673;48.980;8.138;2022-12-07T08:51:44;4.00;99.90
33994;DHT22;20673;48.980;8.138;2022-12-07T08:54:12;4.00;99.90
33994;DHT22;20673;48.980;8.138;2022-12-07T08:56:40;4.00;99.90
33994;DHT22;20673;48.980;8.138;2022-12-07T08:59:07;4.00;99.90
33994;DHT22;20673;48.980;8.138;2022-12-07T09:01:33;4.10;99.90
33994;DHT22;20673;48.980;8.138;2022-12-07T09:03:59;4.10;99.90
33994;DHT22;20673;48.980;8.138;2022-12-07T09:06:25;4.20;99.90
33994;DHT22;20673;48.980;8.138;2022-12-07T09:08:53;4.20;99.90
33994;DHT22;20673;48.980;8.138;2022-12-07T09:11:21;4.10;99.90
33994;DHT22;20673;48.980;8.138;2022-12-07T09:13:47;4.20;99.90
33994;DHT22;20673;48.980;8.138;2022-12-07T09:16:13;4.20;99.90
33994;DHT22;20673;48.980;8.138;2022-12-07T09:18:39;4.20;99.90
33994;DHT22;20673;48.980;8.138;2022-12-07T09:21:05;4.20;99.90
33994;DHT22;20673;48.980;8.138;2022-12-07T09:23:31;4.20;99.90
33994;DHT22;20673;48.980;8.138;2022-12-07T09:26:01;4.30;99.90
33994;DHT22;20673;48.980;8.138;2022-12-07T09:28:30;4.30;99.90
33994;DHT22;20673;48.980;8.138;2022-12-07T09:30:57;4.30;99.90
33994;DHT22;20673;48.980;8.138;2022-12-07T09:33:23;4.40;99.90
33994;DHT22;20673;48.980;8.138;2022-12-07T09:35:51;4.40;99.90
33994;DHT22;20673;48.980;8.138;2022-12-07T09:38:17;4.40;99.90
33994;DHT22;20673;48.980;8.138;2022-12-07T09:40:44;4.40;99.90
33994;DHT22;20673;48.980;8.138;2022-12-07T09:43:15;4.40;99.90
33994;DHT22;20673;48.980;8.138;2022-12-07T09:45:46;4.50;99.90
33994;DHT22;20673;48.980;8.138;2022-12-07T09:48:21;4.50;99.90
33994;DHT22;20673;48.980;8.138;2022-12-07T09:50:57;4.60;99.90
33994;DHT22;20673;48.980;8.138;2022-12-07T09:53:24;4.60;99.90
33994;DHT22;20673;48.980;8.138;2022-12-07T09:55:50;4.70;99.90
33994;DHT22;20673;48.980;8.138;2022-12-07T09:58:19;4.70;99.90
33994;DHT22;20673;48.980;8.138;2022-12-07T10:00:50;4.80;99.90
33994;DHT22;20673;48.980;8.138;2022-12-07T10:03:18;4.80;99.90
33994;DHT22;20673;48.980;8.138;2022-12-07T10:05:45;4.80;99.90
33994;DHT22;20673;48.980;8.138;2022-12-07T10:08:14;4.80;99.90
33994;DHT22;20673;48.980;8.138;2022-12-07T10:10:42;4.80;99.90
33994;DHT22;20673;48.980;8.138;2022-12-07T10:13:13;4.80;99.90
33994;DHT22;20673;48.980;8.138;2022-12-07T10:18:24;4.80;99.90
33994;DHT22;20673;48.980;8.138;2022-12-07T10:21:15;4.80;99.90
33994;DHT22;20673;48.980;8.138;2022-12-07T10:23:29;4.80;99.90
33994;DHT22;20673;48.980;8.138;2022-12-07T10:25:55;4.80;99.90
33994;DHT22;20673;48.980;8.138;2022-12-07T10:28:21;4.80;99.90
33994;DHT22;20673;48.980;8.138;2022-12-07T10:30:49;4.70;99.90
33994;DHT22;20673;48.980;8.138;2022-12-07T10:33:37;4.70;99.90
33994;DHT22;20673;48.980;8.138;2022-12-07T10:38:53;4.70;99.90
33994;DHT22;20673;48.980;8.138;2022-12-07T10:41:30;4.80;99.90
33994;DHT22;20673;48.980;8.138;2022-12-07T10:43:56;4.70;99.90
33994;DHT22;20673;48.980;8.138;2022-12-07T10:54:14;4.90;99.90
33994;DHT22;20673;48.980;8.138;2022-12-07T10:59:39;5.00;99.90
33994;DHT22;20673;48.980;8.138;2022-12-07T11:10:28;5.20;99.90
33994;DHT22;20673;48.980;8.138;2022-12-07T11:15:31;5.20;99.90
33994;DHT22;20673;48.980;8.138;2022-12-07T11:20:43;5.20;99.90
33994;DHT22;20673;48.980;8.138;2022-12-07T11:26:17;5.30;99.90
33994;DHT22;20673;48.980;8.138;2022-12-07T11:34:00;5.50;99.90
33994;DHT22;20673;48.980;8.138;2022-12-07T11:36:39;5.40;99.90
33994;DHT22;20673;48.980;8.138;2022-12-07T11:39:28;5.40;99.90
33994;DHT22;20673;48.980;8.138;2022-12-07T11:41:54;5.40;99.90
33994;DHT22;20673;48.980;8.138;2022-12-07T11:47:13;5.40;99.90
33994;DHT22;20673;48.980;8.138;2022-12-07T11:52:24;5.40;99.90
33994;DHT22;20673;48.980;8.138;2022-12-07T11:54:51;5.50;99.90
33994;DHT22;20673;48.980;8.138;2022-12-07T11:57:25;5.50;99.90
33994;DHT22;20673;48.980;8.138;2022-12-07T11:59:52;5.50;99.90
33994;DHT22;20673;48.980;8.138;2022-12-07T12:02:26;5.50;99.90
33994;DHT22;20673;48.980;8.138;2022-12-07T12:04:54;5.60;99.90
33994;DHT22;20673;48.980;8.138;2022-12-07T12:07:22;5.50;99.90
33994;DHT22;20673;48.980;8.138;2022-12-07T12:10:02;5.50;99.90
33994;DHT22;20673;48.980;8.138;2022-12-07T12:15:23;5.40;99.90
33994;DHT22;20673;48.980;8.138;2022-12-07T12:18:06;5.40;99.90
33994;DHT22;20673;48.980;8.138;2022-12-07T12:20:49;5.30;99.90
33994;DHT22;20673;48.980;8.138;2022-12-07T12:23:19;5.30;99.90
33994;DHT22;20673;48.980;8.138;2022-12-07T12:25:47;5.30;99.90
33994;DHT22;20673;48.980;8.138;2022-12-07T12:31:05;5.30;99.90
33994;DHT22;20673;48.980;8.138;2022-12-07T12:33:34;5.20;99.90
33994;DHT22;20673;48.980;8.138;2022-12-07T12:49:33;5.30;99.90
33994;DHT22;20673;48.980;8.138;2022-12-07T12:57:38;5.30;99.90
33994;DHT22;20673;48.980;8.138;2022-12-07T13:00:20;5.20;99.90
33994;DHT22;20673;48.980;8.138;2022-12-07T13:05:21;5.20;99.90
33994;DHT22;20673;48.980;8.138;2022-12-07T13:07:51;5.30;99.90
33994;DHT22;20673;48.980;8.138;2022-12-07T13:15:41;5.30;99.90
33994;DHT22;20673;48.980;8.138;2022-12-07T13:20:57;5.30;99.90
33994;DHT22;20673;48.980;8.138;2022-12-07T13:24:29;5.20;99.90
33994;DHT22;20673;48.980;8.138;2022-12-07T13:29:12;5.20;99.90
33994;DHT22;20673;48.980;8.138;2022-12-07T13:31:43;5.20;99.90
33994;DHT22;20673;48.980;8.138;2022-12-07T13:39:57;5.20;99.90
33994;DHT22;20673;48.980;8.138;2022-12-07T13:42:32;5.20;99.90
33994;DHT22;20673;48.980;8.138;2022-12-07T13:45:01;5.30;99.90
33994;DHT22;20673;48.980;8.138;2022-12-07T13:47:47;5.30;99.90
33994;DHT22;20673;48.980;8.138;2022-12-07T13:50:22;5.30;99.90
33994;DHT22;20673;48.980;8.138;2022-12-07T13:52:50;5.30;99.90
33994;DHT22;20673;48.980;8.138;2022-12-07T13:55:19;5.30;99.90
33994;DHT22;20673;48.980;8.138;2022-12-07T13:57:47;5.30;99.90
33994;DHT22;20673;48.980;8.138;2022-12-07T14:00:16;5.30;99.90
33994;DHT22;20673;48.980;8.138;2022-12-07T14:05:32;5.30;99.90
33994;DHT22;20673;48.980;8.138;2022-12-07T14:08:01;5.30;99.90
33994;DHT22;20673;48.980;8.138;2022-12-07T14:12:58;5.30;99.90
33994;DHT22;20673;48.980;8.138;2022-12-07T14:15:27;5.30;99.90
33994;DHT22;20673;48.980;8.138;2022-12-07T14:17:56;5.20;99.90
33994;DHT22;20673;48.980;8.138;2022-12-07T14:22:58;5.20;99.90
33994;DHT22;20673;48.980;8.138;2022-12-07T14:25:25;5.20;99.90
33994;DHT22;20673;48.980;8.138;2022-12-07T14:27:54;5.20;99.90
33994;DHT22;20673;48.980;8.138;2022-12-07T14:30:22;5.20;99.90
33994;DHT22;20673;48.980;8.138;2022-12-07T14:32:51;5.20;99.90
33994;DHT22;20673;48.980;8.138;2022-12-07T14:35:19;5.20;99.90
33994;DHT22;20673;48.980;8.138;2022-12-07T14:37:46;5.20;99.90
33994;DHT22;20673;48.980;8.138;2022-12-07T14:40:15;5.10;99.90
33994;DHT22;20673;48.980;8.138;2022-12-07T14:42:56;5.20;99.90
33994;DHT22;20673;48.980;8.138;2022-12-07T14:45:28;5.10;99.90
33994;DHT22;20673;48.980;8.138;2022-12-07T14:47:54;5.10;99.90
33994;DHT22;20673;48.980;8.138;2022-12-07T14:50:20;5.10;99.90
33994;DHT22;20673;48.980;8.138;2022-12-07T14:52:51;5.10;99.90
33994;DHT22;20673;48.980;8.138;2022-12-07T14:55:23;5.00;99.90
33994;DHT22;20673;48.980;8.138;2022-12-07T14:57:54;5.10;99.90
33994;DHT22;20673;48.980;8.138;2022-12-07T15:00:21;5.10;99.90
33994;DHT22;20673;48.980;8.138;2022-12-07T15:02:49;5.10;99.90
33994;DHT22;20673;48.980;8.138;2022-12-07T15:05:15;5.10;99.90
33994;DHT22;20673;48.980;8.138;2022-12-07T15:07:42;5.00;99.90
33994;DHT22;20673;48.980;8.138;2022-12-07T15:10:19;5.00;99.90
33994;DHT22;20673;48.980;8.138;2022-12-07T15:12:52;5.10;99.90
33994;DHT22;20673;48.980;8.138;2022-12-07T15:15:18;5.00;99.90
33994;DHT22;20673;48.980;8.138;2022-12-07T15:17:44;4.90;99.90
33994;DHT22;20673;48.980;8.138;2022-12-07T15:20:14;4.90;99.90
33994;DHT22;20673;48.980;8.138;2022-12-07T15:22:42;4.90;99.90
33994;DHT22;20673;48.980;8.138;2022-12-07T15:25:08;4.80;99.90
33994;DHT22;20673;48.980;8.138;2022-12-07T15:27:36;4.80;99.90
33994;DHT22;20673;48.980;8.138;2022-12-07T15:30:02;4.80;99.90
33994;DHT22;20673;48.980;8.138;2022-12-07T15:32:29;4.90;99.90
33994;DHT22;20673;48.980;8.138;2022-12-07T15:34:55;4.80;99.90
33994;DHT22;20673;48.980;8.138;2022-12-07T15:37:21;4.80;99.90
33994;DHT22;20673;48.980;8.138;2022-12-07T15:39:47;4.80;99.90
33994;DHT22;20673;48.980;8.138;2022-12-07T15:42:13;4.90;99.90
33994;DHT22;20673;48.980;8.138;2022-12-07T15:44:39;4.80;99.90
33994;DHT22;20673;48.980;8.138;2022-12-07T15:47:23;4.90;99.90
33994;DHT22;20673;48.980;8.138;2022-12-07T15:49:49;4.90;99.90
33994;DHT22;20673;48.980;8.138;2022-12-07T15:52:15;4.90;99.90
33994;DHT22;20673;48.980;8.138;2022-12-07T15:54:41;4.80;99.90
33994;DHT22;20673;48.980;8.138;2022-12-07T15:57:07;4.90;99.90
33994;DHT22;20673;48.980;8.138;2022-12-07T15:59:33;4.80;99.90
33994;DHT22;20673;48.980;8.138;2022-12-07T16:01:59;4.80;99.90
33994;DHT22;20673;48.980;8.138;2022-12-07T16:04:26;4.80;99.90
33994;DHT22;20673;48.980;8.138;2022-12-07T16:06:53;4.80;99.90
33994;DHT22;20673;48.980;8.138;2022-12-07T16:09:19;4.80;99.90
33994;DHT22;20673;48.980;8.138;2022-12-07T16:11:46;4.80;99.90
33994;DHT22;20673;48.980;8.138;2022-12-07T16:14:12;4.80;99.90
33994;DHT22;20673;48.980;8.138;2022-12-07T16:16:39;4.70;99.90
33994;DHT22;20673;48.980;8.138;2022-12-07T16:19:06;4.70;99.90
33994;DHT22;20673;48.980;8.138;2022-12-07T16:21:33;4.70;99.90
33994;DHT22;20673;48.980;8.138;2022-12-07T16:24:01;4.70;99.90
33994;DHT22;20673;48.980;8.138;2022-12-07T16:26:27;4.70;99.90
33994;DHT22;20673;48.980;8.138;2022-12-07T16:28:53;4.70;99.90
33994;DHT22;20673;48.980;8.138;2022-12-07T16:31:21;4.70;99.90
33994;DHT22;20673;48.980;8.138;2022-12-07T16:33:49;4.60;99.90
33994;DHT22;20673;48.980;8.138;2022-12-07T16:36:17;4.60;99.90
33994;DHT22;20673;48.980;8.138;2022-12-07T16:38:43;4.50;99.90
33994;DHT22;20673;48.980;8.138;2022-12-07T16:41:10;4.50;99.90
33994;DHT22;20673;48.980;8.138;2022-12-07T16:43:36;4.50;99.90
33994;DHT22;20673;48.980;8.138;2022-12-07T16:46:03;4.50;99.90
33994;DHT22;20673;48.980;8.138;2022-12-07T16:48:29;4.40;99.90
33994;DHT22;20673;48.980;8.138;2022-12-07T16:50:55;4.30;99.90
33994;DHT22;20673;48.980;8.138;2022-12-07T16:53:23;4.30;99.90
33994;DHT22;20673;48.980;8.138;2022-12-07T16:55:50;4.20;99.90
33994;DHT22;20673;48.980;8.138;2022-12-07T16:58:17;4.30;99.90
33994;DHT22;20673;48.980;8.138;2022-12-07T17:00:43;4.30;99.90
33994;DHT22;20673;48.980;8.138;2022-12-07T17:03:10;4.20;99.90
33994;DHT22;20673;48.980;8.138;2022-12-07T17:05:38;4.20;99.90
33994;DHT22;20673;48.980;8.138;2022-12-07T17:08:08;4.20;99.90
33994;DHT22;20673;48.980;8.138;2022-12-07T17:10:35;4.20;99.90
33994;DHT22;20673;48.980;8.138;2022-12-07T17:13:04;4.30;99.90
33994;DHT22;20673;48.980;8.138;2022-12-07T17:15:32;4.30;99.90
33994;DHT22;20673;48.980;8.138;2022-12-07T17:17:58;4.30;99.90
33994;DHT22;20673;48.980;8.138;2022-12-07T17:20:25;4.30;99.90
33994;DHT22;20673;48.980;8.138;2022-12-07T17:22:52;4.30;99.90
33994;DHT22;20673;48.980;8.138;2022-12-07T17:25:18;4.30;99.90
33994;DHT22;20673;48.980;8.138;2022-12-07T17:27:45;4.30;99.90
33994;DHT22;20673;48.980;8.138;2022-12-07T17:30:12;4.40;99.90
33994;DHT22;20673;48.980;8.138;2022-12-07T17:32:39;4.30;99.90
33994;DHT22;20673;48.980;8.138;2022-12-07T17:35:05;4.30;99.90
33994;DHT22;20673;48.980;8.138;2022-12-07T17:37:32;4.20;99.90
33994;DHT22;20673;48.980;8.138;2022-12-07T17:39:58;4.20;99.90
33994;DHT22;20673;48.980;8.138;2022-12-07T17:42:24;4.20;99.90
33994;DHT22;20673;48.980;8.138;2022-12-07T17:45:07;4.10;99.90
33994;DHT22;20673;48.980;8.138;2022-12-07T17:47:35;4.20;99.90
33994;DHT22;20673;48.980;8.138;2022-12-07T17:50:03;4.10;99.90
33994;DHT22;20673;48.980;8.138;2022-12-07T17:52:30;4.10;99.90
33994;DHT22;20673;48.980;8.138;2022-12-07T17:55:15;4.10;99.90
33994;DHT22;20673;48.980;8.138;2022-12-07T17:57:41;4.00;99.90
33994;DHT22;20673;48.980;8.138;2022-12-07T18:00:08;4.00;99.90
33994;DHT22;20673;48.980;8.138;2022-12-07T18:02:36;4.00;99.90
33994;DHT22;20673;48.980;8.138;2022-12-07T18:05:02;3.90;99.90
33994;DHT22;20673;48.980;8.138;2022-12-07T18:07:28;3.80;99.90